sensor_id;sensor_type;location;lat;lon;timestamp;temperature;humidity
72940;DHT22;61094;51.154;13.570;2023-09-19T00:01:09;15.90;99.90
72940;DHT22;61094;51.154;13.570;2023-09-19T00:06:12;15.80;99.90
72940;DHT22;61094;51.154;13.570;2023-09-19T00:11:17;15.80;99.90
72940;DHT22;61094;51.154;13.570;2023-09-19T00:16:19;15.80;99.90
72940;DHT22;61094;51.154;13.570;2023-09-19T00:21:21;15.80;99.90
72940;DHT22;61094;51.154;13.570;2023-09-19T00:26:24;15.90;99.90
72940;DHT22;61094;51.154;13.570;2023-09-19T00:31:26;15.80;99.90
72940;DHT22;61094;51.154;13.570;2023-09-19T00:36:30;15.90;99.90
72940;DHT22;61094;51.154;13.570;2023-09-19T00:41:33;15.90;99.90
72940;DHT22;61094;51.154;13.570;2023-09-19T00:46:36;15.90;99.90
72940;DHT22;61094;51.154;13.570;2023-09-19T00:51:38;15.90;99.90
72940;DHT22;61094;51.154;13.570;2023-09-19T00:56:44;15.80;99.90
72940;DHT22;61094;51.154;13.570;2023-09-19T01:01:46;15.90;99.90
72940;DHT22;61094;51.154;13.570;2023-09-19T01:06:53;15.80;99.90
72940;DHT22;61094;51.154;13.570;2023-09-19T01:12:00;15.90;99.90
72940;DHT22;61094;51.154;13.570;2023-09-19T01:17:05;15.90;99.90
72940;DHT22;61094;51.154;13.570;2023-09-19T01:22:16;16.00;99.90
72940;DHT22;61094;51.154;13.570;2023-09-19T01:27:52;16.00;99.90
72940;DHT22;61094;51.154;13.570;2023-09-19T01:33:00;16.00;99.90
72940;DHT22;61094;51.154;13.570;2023-09-19T01:38:02;16.10;99.90
72940;DHT22;61094;51.154;13.570;2023-09-19T01:43:10;16.10;99.90
72940;DHT22;61094;51.154;13.570;2023-09-19T01:48:21;16.20;99.90
72940;DHT22;61094;51.154;13.570;2023-09-19T01:53:28;16.30;99.90
72940;DHT22;61094;51.154;13.570;2023-09-19T01:58:35;16.40;99.90
72940;DHT22;61094;51.154;13.570;2023-09-19T02:03:41;16.40;99.90
72940;DHT22;61094;51.154;13.570;2023-09-19T02:08:45;16.40;99.90
72940;DHT22;61094;51.154;13.570;2023-09-19T02:13:47;16.30;99.90
72940;DHT22;61094;51.154;13.570;2023-09-19T02:18:56;16.40;99.90
72940;DHT22;61094;51.154;13.570;2023-09-19T02:23:58;16.40;99.90
72940;DHT22;61094;51.154;13.570;2023-09-19T02:29:00;16.50;99.90
72940;DHT22;61094;51.154;13.570;2023-09-19T02:34:06;16.60;99.90
72940;DHT22;61094;51.154;13.570;2023-09-19T02:39:09;16.70;99.90
72940;DHT22;61094;51.154;13.570;2023-09-19T02:44:11;16.90;99.90
72940;DHT22;61094;51.154;13.570;2023-09-19T02:49:14;16.90;99.90
72940;DHT22;61094;51.154;13.570;2023-09-19T02:54:18;17.00;99.90
72940;DHT22;61094;51.154;13.570;2023-09-19T02:59:20;17.00;99.90
72940;DHT22;61094;51.154;13.570;2023-09-19T03:04:23;17.00;99.90
72940;DHT22;61094;51.154;13.570;2023-09-19T03:09:27;17.10;99.90
72940;DHT22;61094;51.154;13.570;2023-09-19T03:14:29;17.10;99.90
72940;DHT22;61094;51.154;13.570;2023-09-19T03:19:37;17.00;99.90
72940;DHT22;61094;51.154;13.570;2023-09-19T03:24:40;17.00;99.90
72940;DHT22;61094;51.154;13.570;2023-09-19T03:29:44;17.00;99.90
72940;DHT22;61094;51.154;13.570;2023-09-19T03:34:47;17.00;99.90
72940;DHT22;61094;51.154;13.570;2023-09-19T03:39:51;16.90;99.90
72940;DHT22;61094;51.154;13.570;2023-09-19T03:44:53;16.90;99.90
72940;DHT22;61094;51.154;13.570;2023-09-19T03:49:57;17.00;99.90
72940;DHT22;61094;51.154;13.570;2023-09-19T03:54:59;16.90;99.90
72940;DHT22;61094;51.154;13.570;2023-09-19T04:00:02;16.90;99.90
72940;DHT22;61094;51.154;13.570;2023-09-19T04:05:52;16.90;99.90
72940;DHT22;61094;51.154;13.570;2023-09-19T04:11:42;16.90;99.90
72940;DHT22;61094;51.154;13.570;2023-09-19T04:16:46;16.90;99.90
72940;DHT22;61094;51.154;13.570;2023-09-19T04:21:49;16.80;99.90
72940;DHT22;61094;51.154;13.570;2023-09-19T04:26:54;16.80;99.90
72940;DHT22;61094;51.154;13.570;2023-09-19T04:32:01;16.80;99.90
72940;DHT22;61094;51.154;13.570;2023-09-19T04:37:07;16.70;99.90
72940;DHT22;61094;51.154;13.570;2023-09-19T04:42:09;16.70;99.90
72940;DHT22;61094;51.154;13.570;2023-09-19T04:47:15;16.70;99.90
72940;DHT22;61094;51.154;13.570;2023-09-19T05:04:50;16.70;99.90
72940;DHT22;61094;51.154;13.570;2023-09-19T05:10:09;16.70;99.90
72940;DHT22;61094;51.154;13.570;2023-09-19T05:28:54;16.70;99.90
72940;DHT22;61094;51.154;13.570;2023-09-19T05:33:57;16.70;99.90
72940;DHT22;61094;51.154;13.570;2023-09-19T05:39:01;16.70;99.90
72940;DHT22;61094;51.154;13.570;2023-09-19T05:44:05;16.70;99.90
72940;DHT22;61094;51.154;13.570;2023-09-19T05:49:08;16.80;99.90
72940;DHT22;61094;51.154;13.570;2023-09-19T05:54:09;16.80;99.90
72940;DHT22;61094;51.154;13.570;2023-09-19T05:59:13;16.80;99.90
72940;DHT22;61094;51.154;13.570;2023-09-19T06:04:16;16.80;99.90
72940;DHT22;61094;51.154;13.570;2023-09-19T06:09:19;16.90;99.90
72940;DHT22;61094;51.154;13.570;2023-09-19T06:46:26;17.20;99.90
72940;DHT22;61094;51.154;13.570;2023-09-19T06:51:33;17.30;99.90
72940;DHT22;61094;51.154;13.570;2023-09-19T06:56:36;17.40;99.90
72940;DHT22;61094;51.154;13.570;2023-09-19T07:01:40;17.60;99.90
72940;DHT22;61094;51.154;13.570;2023-09-19T07:06:41;17.70;99.90
72940;DHT22;61094;51.154;13.570;2023-09-19T07:11:43;17.80;99.90
72940;DHT22;61094;51.154;13.570;2023-09-19T07:16:46;17.90;99.90
72940;DHT22;61094;51.154;13.570;2023-09-19T07:21:50;18.10;99.90
72940;DHT22;61094;51.154;13.570;2023-09-19T07:26:51;18.20;99.90
72940;DHT22;61094;51.154;13.570;2023-09-19T07:31:55;18.30;99.90
72940;DHT22;61094;51.154;13.570;2023-09-19T07:36:56;18.50;99.90
72940;DHT22;61094;51.154;13.570;2023-09-19T07:41:58;18.80;98.00
72940;DHT22;61094;51.154;13.570;2023-09-19T07:47:01;18.90;94.20
72940;DHT22;61094;51.154;13.570;2023-09-19T07:52:04;19.00;90.90
72940;DHT22;61094;51.154;13.570;2023-09-19T07:57:06;19.20;87.30
72940;DHT22;61094;51.154;13.570;2023-09-19T08:02:09;19.50;84.10
72940;DHT22;61094;51.154;13.570;2023-09-19T08:07:16;19.60;76.50
72940;DHT22;61094;51.154;13.570;2023-09-19T08:12:18;19.80;80.80
72940;DHT22;61094;51.154;13.570;2023-09-19T08:17:26;20.10;76.00
72940;DHT22;61094;51.154;13.570;2023-09-19T08:22:27;20.60;73.00
72940;DHT22;61094;51.154;13.570;2023-09-19T08:27:30;21.20;67.30
72940;DHT22;61094;51.154;13.570;2023-09-19T08:32:33;21.80;59.80
72940;DHT22;61094;51.154;13.570;2023-09-19T08:37:35;22.30;52.40
72940;DHT22;61094;51.154;13.570;2023-09-19T08:42:52;22.50;50.80
72940;DHT22;61094;51.154;13.570;2023-09-19T08:48:03;22.70;48.90
72940;DHT22;61094;51.154;13.570;2023-09-19T08:53:10;23.10;42.50
72940;DHT22;61094;51.154;13.570;2023-09-19T08:58:14;23.20;42.80
72940;DHT22;61094;51.154;13.570;2023-09-19T09:03:21;22.90;39.70
72940;DHT22;61094;51.154;13.570;2023-09-19T09:08:24;22.30;41.20
72940;DHT22;61094;51.154;13.570;2023-09-19T09:13:27;21.60;45.60
72940;DHT22;61094;51.154;13.570;2023-09-19T09:18:30;21.20;49.80
72940;DHT22;61094;51.154;13.570;2023-09-19T09:23:32;21.00;53.60
72940;DHT22;61094;51.154;13.570;2023-09-19T09:28:34;21.90;45.60
72940;DHT22;61094;51.154;13.570;2023-09-19T09:33:40;22.10;42.90
72940;DHT22;61094;51.154;13.570;2023-09-19T09:38:45;21.80;43.10
72940;DHT22;61094;51.154;13.570;2023-09-19T09:43:49;21.60;43.90
72940;DHT22;61094;51.154;13.570;2023-09-19T09:48:58;21.60;43.30
72940;DHT22;61094;51.154;13.570;2023-09-19T09:54:20;21.60;42.40
72940;DHT22;61094;51.154;13.570;2023-09-19T09:59:22;21.60;42.10
72940;DHT22;61094;51.154;13.570;2023-09-19T10:04:29;22.30;42.50
72940;DHT22;61094;51.154;13.570;2023-09-19T10:09:45;22.70;38.50
72940;DHT22;61094;51.154;13.570;2023-09-19T10:14:48;22.40;38.40
72940;DHT22;61094;51.154;13.570;2023-09-19T10:19:55;22.10;40.50
72940;DHT22;61094;51.154;13.570;2023-09-19T10:24:59;23.00;38.80
72940;DHT22;61094;51.154;13.570;2023-09-19T10:30:05;24.00;34.80
72940;DHT22;61094;51.154;13.570;2023-09-19T10:35:11;24.70;32.80
72940;DHT22;61094;51.154;13.570;2023-09-19T10:40:14;25.00;32.00
72940;DHT22;61094;51.154;13.570;2023-09-19T10:45:17;25.80;31.50
72940;DHT22;61094;51.154;13.570;2023-09-19T10:50:22;25.90;29.40
72940;DHT22;61094;51.154;13.570;2023-09-19T10:55:27;25.50;30.10
72940;DHT22;61094;51.154;13.570;2023-09-19T11:00:30;25.00;31.50
72940;DHT22;61094;51.154;13.570;2023-09-19T11:05:36;25.30;32.30
72940;DHT22;61094;51.154;13.570;2023-09-19T11:10:47;25.50;31.90
72940;DHT22;61094;51.154;13.570;2023-09-19T11:16:17;25.20;31.70
72940;DHT22;61094;51.154;13.570;2023-09-19T11:21:41;24.20;31.70
72940;DHT22;61094;51.154;13.570;2023-09-19T11:26:44;23.60;33.90
72940;DHT22;61094;51.154;13.570;2023-09-19T11:31:48;23.40;34.80
72940;DHT22;61094;51.154;13.570;2023-09-19T11:36:51;23.60;32.20
72940;DHT22;61094;51.154;13.570;2023-09-19T11:41:54;23.70;31.80
72940;DHT22;61094;51.154;13.570;2023-09-19T11:46:57;23.80;32.20
72940;DHT22;61094;51.154;13.570;2023-09-19T11:52:02;23.70;31.70
72940;DHT22;61094;51.154;13.570;2023-09-19T11:57:07;23.90;32.20
72940;DHT22;61094;51.154;13.570;2023-09-19T12:02:18;24.10;30.60
72940;DHT22;61094;51.154;13.570;2023-09-19T12:07:42;24.00;30.70
72940;DHT22;61094;51.154;13.570;2023-09-19T12:12:47;24.20;31.10
72940;DHT22;61094;51.154;13.570;2023-09-19T12:17:50;24.30;30.20
72940;DHT22;61094;51.154;13.570;2023-09-19T12:22:53;24.50;29.60
72940;DHT22;61094;51.154;13.570;2023-09-19T12:27:55;24.30;29.70
72940;DHT22;61094;51.154;13.570;2023-09-19T12:32:58;24.20;30.00
72940;DHT22;61094;51.154;13.570;2023-09-19T12:38:01;24.40;30.80
72940;DHT22;61094;51.154;13.570;2023-09-19T12:43:05;24.20;29.80
72940;DHT22;61094;51.154;13.570;2023-09-19T12:48:19;24.00;30.10
72940;DHT22;61094;51.154;13.570;2023-09-19T12:53:26;24.30;29.60
72940;DHT22;61094;51.154;13.570;2023-09-19T12:58:29;24.40;29.10
72940;DHT22;61094;51.154;13.570;2023-09-19T13:03:32;24.80;28.60
72940;DHT22;61094;51.154;13.570;2023-09-19T13:08:37;24.60;28.10
72940;DHT22;61094;51.154;13.570;2023-09-19T13:13:44;24.40;27.70
72940;DHT22;61094;51.154;13.570;2023-09-19T13:18:48;24.80;28.00
72940;DHT22;61094;51.154;13.570;2023-09-19T13:23:53;24.90;27.70
72940;DHT22;61094;51.154;13.570;2023-09-19T13:28:59;24.90;27.50
72940;DHT22;61094;51.154;13.570;2023-09-19T13:34:01;24.80;27.40
72940;DHT22;61094;51.154;13.570;2023-09-19T13:39:04;24.30;28.00
72940;DHT22;61094;51.154;13.570;2023-09-19T13:44:09;24.30;29.30
72940;DHT22;61094;51.154;13.570;2023-09-19T13:49:12;24.40;29.00
72940;DHT22;61094;51.154;13.570;2023-09-19T13:54:15;24.30;28.90
72940;DHT22;61094;51.154;13.570;2023-09-19T13:59:16;24.40;28.80
72940;DHT22;61094;51.154;13.570;2023-09-19T14:04:18;24.20;28.90
72940;DHT22;61094;51.154;13.570;2023-09-19T14:09:22;24.20;29.60
72940;DHT22;61094;51.154;13.570;2023-09-19T14:14:25;24.50;28.90
72940;DHT22;61094;51.154;13.570;2023-09-19T14:19:27;24.50;28.70
72940;DHT22;61094;51.154;13.570;2023-09-19T14:24:30;24.70;28.90
72940;DHT22;61094;51.154;13.570;2023-09-19T14:29:33;25.00;28.50
72940;DHT22;61094;51.154;13.570;2023-09-19T14:34:35;25.20;28.40
72940;DHT22;61094;51.154;13.570;2023-09-19T14:39:43;25.50;28.20
72940;DHT22;61094;51.154;13.570;2023-09-19T14:44:45;25.40;28.40
72940;DHT22;61094;51.154;13.570;2023-09-19T14:49:49;25.40;27.90
72940;DHT22;61094;51.154;13.570;2023-09-19T14:54:52;25.30;27.60
72940;DHT22;61094;51.154;13.570;2023-09-19T14:59:53;25.10;27.50
72940;DHT22;61094;51.154;13.570;2023-09-19T15:04:55;25.10;28.10
72940;DHT22;61094;51.154;13.570;2023-09-19T15:09:59;24.90;27.80
72940;DHT22;61094;51.154;13.570;2023-09-19T15:15:01;24.80;27.60
72940;DHT22;61094;51.154;13.570;2023-09-19T15:20:04;24.90;27.80
72940;DHT22;61094;51.154;13.570;2023-09-19T15:25:08;24.80;26.70
72940;DHT22;61094;51.154;13.570;2023-09-19T15:30:11;24.30;27.00
72940;DHT22;61094;51.154;13.570;2023-09-19T15:35:15;24.00;27.00
72940;DHT22;61094;51.154;13.570;2023-09-19T15:40:20;24.00;27.10
72940;DHT22;61094;51.154;13.570;2023-09-19T15:45:24;23.80;26.90
72940;DHT22;61094;51.154;13.570;2023-09-19T15:50:27;23.50;27.10
72940;DHT22;61094;51.154;13.570;2023-09-19T15:55:31;23.50;27.30
72940;DHT22;61094;51.154;13.570;2023-09-19T16:00:33;23.40;27.60
72940;DHT22;61094;51.154;13.570;2023-09-19T16:05:37;23.10;27.90
72940;DHT22;61094;51.154;13.570;2023-09-19T16:10:41;22.80;28.30
72940;DHT22;61094;51.154;13.570;2023-09-19T16:15:43;22.50;28.70
72940;DHT22;61094;51.154;13.570;2023-09-19T16:20:45;22.30;28.90
72940;DHT22;61094;51.154;13.570;2023-09-19T16:26:00;22.20;29.00
72940;DHT22;61094;51.154;13.570;2023-09-19T16:31:03;22.00;29.30
72940;DHT22;61094;51.154;13.570;2023-09-19T16:36:07;21.80;29.70
72940;DHT22;61094;51.154;13.570;2023-09-19T16:41:11;21.60;29.10
72940;DHT22;61094;51.154;13.570;2023-09-19T16:46:14;21.50;29.30
72940;DHT22;61094;51.154;13.570;2023-09-19T16:51:17;21.30;29.10
72940;DHT22;61094;51.154;13.570;2023-09-19T16:56:21;21.20;29.10
72940;DHT22;61094;51.154;13.570;2023-09-19T17:01:22;21.10;29.60
72940;DHT22;61094;51.154;13.570;2023-09-19T17:06:24;21.00;29.80
72940;DHT22;61094;51.154;13.570;2023-09-19T17:11:28;20.90;30.00
72940;DHT22;61094;51.154;13.570;2023-09-19T17:16:31;20.70;30.40
72940;DHT22;61094;51.154;13.570;2023-09-19T17:21:35;20.60;30.80
72940;DHT22;61094;51.154;13.570;2023-09-19T17:26:38;20.40;31.00
72940;DHT22;61094;51.154;13.570;2023-09-19T17:31:42;20.30;31.40
72940;DHT22;61094;51.154;13.570;2023-09-19T17:36:44;20.20;32.00
72940;DHT22;61094;51.154;13.570;2023-09-19T17:41:47;20.00;32.20
72940;DHT22;61094;51.154;13.570;2023-09-19T17:46:49;19.80;32.50
72940;DHT22;61094;51.154;13.570;2023-09-19T17:51:52;19.60;33.10
72940;DHT22;61094;51.154;13.570;2023-09-19T17:56:57;19.40;33.20
72940;DHT22;61094;51.154;13.570;2023-09-19T18:01:59;19.30;33.50
72940;DHT22;61094;51.154;13.570;2023-09-19T18:07:01;19.20;33.70
72940;DHT22;61094;51.154;13.570;2023-09-19T18:12:04;19.10;33.60
72940;DHT22;61094;51.154;13.570;2023-09-19T18:17:07;19.00;33.80
72940;DHT22;61094;51.154;13.570;2023-09-19T18:22:10;18.90;33.90
72940;DHT22;61094;51.154;13.570;2023-09-19T18:27:13;18.90;34.20
72940;DHT22;61094;51.154;13.570;2023-09-19T18:32:15;18.70;34.20
72940;DHT22;61094;51.154;13.570;2023-09-19T18:37:17;18.60;34.50
72940;DHT22;61094;51.154;13.570;2023-09-19T18:42:20;18.50;34.70
72940;DHT22;61094;51.154;13.570;2023-09-19T18:47:22;18.40;34.50
72940;DHT22;61094;51.154;13.570;2023-09-19T18:52:29;18.40;35.10
72940;DHT22;61094;51.154;13.570;2023-09-19T18:57:32;18.30;35.60
72940;DHT22;61094;51.154;13.570;2023-09-19T19:02:35;18.10;35.90
72940;DHT22;61094;51.154;13.570;2023-09-19T19:07:38;18.00;36.30
72940;DHT22;61094;51.154;13.570;2023-09-19T19:12:41;17.90;37.10
72940;DHT22;61094;51.154;13.570;2023-09-19T19:17:43;17.90;37.40
72940;DHT22;61094;51.154;13.570;2023-09-19T19:22:45;17.70;37.90
72940;DHT22;61094;51.154;13.570;2023-09-19T19:27:48;17.60;39.00
72940;DHT22;61094;51.154;13.570;2023-09-19T19:32:51;17.60;39.40
72940;DHT22;61094;51.154;13.570;2023-09-19T19:37:52;17.50;40.50
72940;DHT22;61094;51.154;13.570;2023-09-19T19:42:56;17.40;42.40
72940;DHT22;61094;51.154;13.570;2023-09-19T19:47:57;17.30;43.70
72940;DHT22;61094;51.154;13.570;2023-09-19T19:52:59;17.20;46.50
72940;DHT22;61094;51.154;13.570;2023-09-19T19:58:03;17.00;49.50
72940;DHT22;61094;51.154;13.570;2023-09-19T20:03:05;16.90;53.00
72940;DHT22;61094;51.154;13.570;2023-09-19T20:08:07;16.90;55.10
72940;DHT22;61094;51.154;13.570;2023-09-19T20:13:13;16.90;56.20
72940;DHT22;61094;51.154;13.570;2023-09-19T20:18:15;16.80;57.10
72940;DHT22;61094;51.154;13.570;2023-09-19T20:23:19;16.70;60.90
72940;DHT22;61094;51.154;13.570;2023-09-19T20:28:23;16.60;64.10
72940;DHT22;61094;51.154;13.570;2023-09-19T20:33:25;16.60;63.80
72940;DHT22;61094;51.154;13.570;2023-09-19T20:38:27;16.50;67.60
72940;DHT22;61094;51.154;13.570;2023-09-19T20:43:31;16.40;70.50
72940;DHT22;61094;51.154;13.570;2023-09-19T20:48:34;16.30;71.70
72940;DHT22;61094;51.154;13.570;2023-09-19T20:53:36;16.30;71.90
72940;DHT22;61094;51.154;13.570;2023-09-19T20:58:40;16.20;75.80
72940;DHT22;61094;51.154;13.570;2023-09-19T21:03:42;16.20;76.00
72940;DHT22;61094;51.154;13.570;2023-09-19T21:08:43;16.10;76.30
72940;DHT22;61094;51.154;13.570;2023-09-19T21:13:49;16.00;78.20
72940;DHT22;61094;51.154;13.570;2023-09-19T21:18:51;15.90;81.00
72940;DHT22;61094;51.154;13.570;2023-09-19T21:23:54;15.90;81.60
72940;DHT22;61094;51.154;13.570;2023-09-19T21:28:57;15.80;81.80
72940;DHT22;61094;51.154;13.570;2023-09-19T21:33:59;15.70;85.20
72940;DHT22;61094;51.154;13.570;2023-09-19T21:39:01;15.70;84.00
72940;DHT22;61094;51.154;13.570;2023-09-19T21:44:04;15.60;85.10
72940;DHT22;61094;51.154;13.570;2023-09-19T21:49:06;15.60;86.50
72940;DHT22;61094;51.154;13.570;2023-09-19T21:54:08;15.50;85.80
72940;DHT22;61094;51.154;13.570;2023-09-19T21:59:11;15.50;89.20
72940;DHT22;61094;51.154;13.570;2023-09-19T22:04:15;15.40;89.40
72940;DHT22;61094;51.154;13.570;2023-09-19T22:09:18;15.30;88.80
72940;DHT22;61094;51.154;13.570;2023-09-19T22:14:21;15.20;90.70
72940;DHT22;61094;51.154;13.570;2023-09-19T22:19:29;15.10;91.10
72940;DHT22;61094;51.154;13.570;2023-09-19T22:24:31;15.10;91.00
72940;DHT22;61094;51.154;13.570;2023-09-19T22:29:34;15.10;92.20
72940;DHT22;61094;51.154;13.570;2023-09-19T22:34:36;15.00;92.30
72940;DHT22;61094;51.154;13.570;2023-09-19T22:39:38;15.00;90.70
72940;DHT22;61094;51.154;13.570;2023-09-19T22:44:41;14.90;91.70
72940;DHT22;61094;51.154;13.570;2023-09-19T22:49:45;14.80;92.90
72940;DHT22;61094;51.154;13.570;2023-09-19T22:54:47;14.70;94.20
72940;DHT22;61094;51.154;13.570;2023-09-19T22:59:50;14.60;94.60
72940;DHT22;61094;51.154;13.570;2023-09-19T23:04:53;14.60;95.10
72940;DHT22;61094;51.154;13.570;2023-09-19T23:10:01;14.50;93.70
72940;DHT22;61094;51.154;13.570;2023-09-19T23:15:08;14.50;94.80
72940;DHT22;61094;51.154;13.570;2023-09-19T23:20:12;14.40;95.10
72940;DHT22;61094;51.154;13.570;2023-09-19T23:25:25;14.40;95.00
72940;DHT22;61094;51.154;13.570;2023-09-19T23:30:29;14.30;95.70
72940;DHT22;61094;51.154;13.570;2023-09-19T23:35:33;14.30;97.40
72940;DHT22;61094;51.154;13.570;2023-09-19T23:40:35;14.20;97.90
72940;DHT22;61094;51.154;13.570;2023-09-19T23:45:41;14.20;98.30
72940;DHT22;61094;51.154;13.570;2023-09-19T23:50:47;14.20;98.00
72940;DHT22;61094;51.154;13.570;2023-09-19T23:55:49;14.10;98.90
